createdAt,value
2019-01-24T00:00:59.575Z,113.32
2019-01-24T00:03:27.383Z,111.95
2019-01-24T00:05:55.436Z,113.05
2019-01-24T00:08:23.545Z,110.87
2019-01-24T00:10:51.204Z,111.25
2019-01-24T00:13:18.993Z,118.33
2019-01-24T00:15:46.744Z,105.15
2019-01-24T00:18:14.550Z,111.92
2019-01-24T00:20:42.291Z,105.87
2019-01-24T00:23:10.070Z,111.35
2019-01-24T00:25:37.616Z,113.05
2019-01-24T00:28:05.671Z,111.92
2019-01-24T00:30:33.424Z,109.22
2019-01-24T00:33:01.503Z,114.95
2019-01-24T00:35:29.247Z,113.00
2019-01-24T00:37:57.478Z,109.00
2019-01-24T00:40:25.224Z,112.60
2019-01-24T00:42:53.274Z,110.75
2019-01-24T00:45:21.020Z,103.10
2019-01-24T00:47:48.578Z,111.25
2019-01-24T00:50:16.659Z,110.00
2019-01-24T00:52:44.944Z,109.25
2019-01-24T00:55:13.683Z,123.05
2019-01-24T00:57:41.915Z,112.35
2019-01-24T01:00:19.666Z,109.17
2019-01-24T01:02:47.928Z,109.70
2019-01-24T01:05:15.815Z,116.90
2019-01-24T01:07:43.709Z,119.62
2019-01-24T01:10:11.828Z,107.80
2019-01-24T01:12:41.150Z,106.55
2019-01-24T01:15:12.617Z,117.28
2019-01-24T01:17:40.903Z,101.02
2019-01-24T01:20:12.948Z,109.72
2019-01-24T01:22:40.964Z,102.32
2019-01-24T01:25:09.895Z,116.77
2019-01-24T01:27:37.967Z,111.42
2019-01-24T01:30:10.175Z,111.90
2019-01-24T01:32:38.244Z,105.50
2019-01-24T01:35:06.367Z,104.32
2019-01-24T01:37:34.160Z,106.72
2019-01-24T01:40:01.946Z,109.15
2019-01-24T01:42:29.976Z,105.45
2019-01-24T01:44:58.028Z,100.75
2019-01-24T01:47:26.055Z,107.05
2019-01-24T01:49:54.434Z,107.67
2019-01-24T01:52:22.214Z,118.80
2019-01-24T01:54:50.255Z,104.45
2019-01-24T01:57:17.809Z,111.42
2019-01-24T01:59:45.791Z,100.53
2019-01-24T02:02:14.075Z,108.42
2019-01-24T02:04:43.018Z,114.70
2019-01-24T02:07:10.954Z,99.67
2019-01-24T02:09:38.784Z,100.10
2019-01-24T02:12:06.804Z,98.15
2019-01-24T02:14:34.836Z,104.87
2019-01-24T02:17:02.680Z,116.47
2019-01-24T02:19:30.263Z,114.60
2019-01-24T02:21:58.289Z,105.35
2019-01-24T02:24:26.157Z,104.30
2019-01-24T02:26:54.197Z,97.55
2019-01-24T02:29:22.080Z,103.72
2019-01-24T02:31:49.732Z,106.47
2019-01-24T02:34:18.409Z,101.42
2019-01-24T02:36:46.182Z,100.60
2019-01-24T02:39:14.020Z,103.50
2019-01-24T02:41:41.741Z,104.85
2019-01-24T02:44:09.515Z,95.75
2019-01-24T02:46:37.371Z,97.12
2019-01-24T02:49:05.451Z,100.80
2019-01-24T02:51:33.352Z,100.05
2019-01-24T02:54:01.363Z,98.90
2019-01-24T02:56:29.415Z,96.63
2019-01-24T02:58:57.410Z,95.83
2019-01-24T03:01:25.182Z,101.67
2019-01-24T03:03:53.272Z,107.00
2019-01-24T03:06:20.946Z,100.22
2019-01-24T03:08:48.521Z,102.00
2019-01-24T03:11:16.205Z,98.22
2019-01-24T03:13:43.955Z,96.57
2019-01-24T03:16:12.007Z,97.97
2019-01-24T03:18:39.951Z,100.22
2019-01-24T03:21:07.716Z,99.67
2019-01-24T03:23:35.473Z,97.88
2019-01-24T03:26:03.536Z,106.12
2019-01-24T03:28:31.290Z,99.42
2019-01-24T03:30:59.088Z,102.38
2019-01-24T03:33:26.735Z,105.90
2019-01-24T03:35:54.321Z,103.60
2019-01-24T03:38:22.370Z,101.85
2019-01-24T03:40:50.160Z,103.80
2019-01-24T03:43:17.799Z,102.42
2019-01-24T03:45:45.580Z,95.40
2019-01-24T03:48:13.383Z,98.25
2019-01-24T03:50:41.168Z,99.65
2019-01-24T03:53:10.195Z,109.63
2019-01-24T03:55:37.983Z,92.78
2019-01-24T03:58:06.005Z,94.95
2019-01-24T04:00:33.830Z,98.52
2019-01-24T04:03:01.585Z,101.30
2019-01-24T04:05:29.640Z,102.00
2019-01-24T04:07:57.576Z,94.52
2019-01-24T04:10:26.364Z,100.55
2019-01-24T04:12:54.106Z,107.52
2019-01-24T04:15:24.234Z,100.07
2019-01-24T04:17:52.332Z,101.67
2019-01-24T04:20:20.207Z,90.42
2019-01-24T04:22:47.761Z,95.65
2019-01-24T04:25:15.534Z,102.72
2019-01-24T04:27:43.318Z,95.22
2019-01-24T04:30:14.549Z,91.55
2019-01-24T04:32:42.706Z,99.28
2019-01-24T04:35:10.684Z,93.30
2019-01-24T04:37:38.809Z,94.32
2019-01-24T04:40:10.241Z,93.95
2019-01-24T04:42:37.992Z,96.95
2019-01-24T04:45:07.423Z,95.42
2019-01-24T04:47:35.197Z,100.30
2019-01-24T04:50:03.727Z,101.40
2019-01-24T04:52:31.377Z,92.12
2019-01-24T04:54:59.204Z,99.40
2019-01-24T04:57:26.988Z,100.00
2019-01-24T04:59:54.543Z,103.87
2019-01-24T05:02:22.391Z,98.33
2019-01-24T05:04:50.581Z,99.72
2019-01-24T05:07:18.633Z,96.67
2019-01-24T05:09:46.305Z,96.45
2019-01-24T05:12:13.877Z,98.22
2019-01-24T05:14:41.745Z,101.62
2019-01-24T05:17:09.689Z,114.05
2019-01-24T05:19:37.342Z,101.35
2019-01-24T05:22:05.128Z,104.23
2019-01-24T05:24:33.078Z,107.65
2019-01-24T05:27:00.989Z,101.25
2019-01-24T05:29:29.024Z,99.97
2019-01-24T05:31:57.059Z,101.42
2019-01-24T05:34:25.073Z,97.10
2019-01-24T05:36:52.842Z,103.02
2019-01-24T05:39:20.879Z,102.32
2019-01-24T05:41:48.735Z,103.55
2019-01-24T05:44:16.495Z,105.92
2019-01-24T05:46:44.099Z,131.03
2019-01-24T05:49:11.921Z,119.60
2019-01-24T05:51:39.971Z,97.92
2019-01-24T05:54:07.631Z,97.27
2019-01-24T05:56:35.275Z,102.70
2019-01-24T05:59:03.362Z,98.25
2019-01-24T06:01:31.944Z,101.17
2019-01-24T06:03:59.699Z,97.25
2019-01-24T06:06:27.475Z,92.08
2019-01-24T06:08:55.043Z,96.90
2019-01-24T06:11:22.723Z,89.72
2019-01-24T06:13:50.271Z,91.30
2019-01-24T06:16:17.856Z,101.10
2019-01-24T06:18:45.617Z,97.55
2019-01-24T06:21:13.684Z,91.60
2019-01-24T06:23:41.391Z,91.80
2019-01-24T06:26:09.420Z,103.65
2019-01-24T06:28:37.073Z,98.03
2019-01-24T06:31:04.856Z,91.55
2019-01-24T06:33:32.615Z,91.85
2019-01-24T06:36:00.418Z,123.85
2019-01-24T06:38:27.891Z,122.33
2019-01-24T06:40:55.770Z,99.20
2019-01-24T06:43:23.856Z,104.43
2019-01-24T06:45:51.617Z,112.00
2019-01-24T06:48:19.310Z,101.18
2019-01-24T06:50:46.861Z,89.50
2019-01-24T06:53:15.679Z,93.62
2019-01-24T06:55:43.225Z,108.83
2019-01-24T06:58:11.258Z,98.12
2019-01-24T07:00:39.009Z,88.80
2019-01-24T07:03:06.792Z,89.35
2019-01-24T07:05:34.530Z,94.97
2019-01-24T07:08:02.303Z,108.55
2019-01-24T07:10:30.357Z,128.35
2019-01-24T07:12:57.939Z,144.10
2019-01-24T07:15:25.724Z,122.17
2019-01-24T07:17:53.600Z,108.32
2019-01-24T07:20:21.471Z,141.97
2019-01-24T07:22:49.442Z,125.67
2019-01-24T07:25:23.927Z,96.05
2019-01-24T07:27:51.690Z,93.65
2019-01-24T07:30:19.485Z,98.27
2019-01-24T07:32:47.368Z,99.25
2019-01-24T07:35:15.912Z,92.92
2019-01-24T07:37:44.052Z,101.38
2019-01-24T07:40:13.697Z,101.05
2019-01-24T07:42:41.474Z,99.62
2019-01-24T07:45:19.437Z,102.60
2019-01-24T07:47:47.407Z,100.02
2019-01-24T07:50:15.155Z,99.92
2019-01-24T07:52:42.962Z,97.65
2019-01-24T07:55:10.902Z,98.67
2019-01-24T07:57:41.321Z,103.87
2019-01-24T08:00:14.558Z,94.60
2019-01-24T08:02:42.503Z,97.72
2019-01-24T08:05:11.221Z,91.08
2019-01-24T08:07:39.015Z,101.15
2019-01-24T08:10:10.471Z,98.82
2019-01-24T08:12:38.267Z,98.10
2019-01-24T08:15:06.839Z,94.65
2019-01-24T08:17:34.675Z,90.38
2019-01-24T08:20:02.439Z,99.70
2019-01-24T08:22:30.117Z,88.97
2019-01-24T08:24:57.792Z,95.28
2019-01-24T08:27:25.636Z,89.32
2019-01-24T08:29:53.292Z,93.07
2019-01-24T08:32:21.355Z,91.75
2019-01-24T08:34:49.008Z,92.10
2019-01-24T08:37:16.653Z,97.27
2019-01-24T08:39:44.723Z,101.02
2019-01-24T08:42:12.459Z,92.90
2019-01-24T08:44:40.078Z,94.80
2019-01-24T08:47:07.852Z,96.20
2019-01-24T08:49:35.528Z,105.58
2019-01-24T08:52:03.590Z,97.62
2019-01-24T08:54:31.284Z,87.05
2019-01-24T08:56:59.049Z,95.55
2019-01-24T08:59:29.566Z,87.10
2019-01-24T09:01:56.538Z,88.52
2019-01-24T09:04:24.581Z,92.27
2019-01-24T09:06:52.232Z,98.58
2019-01-24T09:09:19.748Z,87.35
2019-01-24T09:11:47.427Z,87.62
2019-01-24T09:14:15.254Z,93.10
2019-01-24T09:16:43.149Z,102.60
2019-01-24T09:19:11.117Z,124.50
2019-01-24T09:21:38.811Z,94.32
2019-01-24T09:24:06.703Z,97.37
2019-01-24T09:26:34.716Z,90.95
2019-01-24T09:29:02.656Z,100.67
2019-01-24T09:31:30.438Z,92.67
2019-01-24T09:33:58.520Z,98.37
2019-01-24T09:36:29.313Z,92.95
2019-01-24T09:38:55.991Z,95.25
2019-01-24T09:41:23.915Z,102.80
2019-01-24T09:43:51.737Z,99.25
2019-01-24T09:46:19.496Z,96.02
2019-01-24T09:48:47.281Z,91.75
2019-01-24T09:51:14.937Z,100.27
2019-01-24T09:53:42.639Z,92.80
2019-01-24T09:56:10.388Z,96.97
2019-01-24T09:58:38.204Z,95.15
2019-01-24T10:01:05.961Z,104.65
2019-01-24T10:03:33.676Z,97.78
2019-01-24T10:06:01.830Z,96.22
2019-01-24T10:08:29.628Z,95.03
2019-01-24T10:10:57.316Z,98.72
2019-01-24T10:13:25.116Z,101.50
2019-01-24T10:15:53.050Z,92.88
2019-01-24T10:18:21.745Z,91.97
2019-01-24T10:20:49.612Z,89.75
2019-01-24T10:23:17.424Z,90.30
2019-01-24T10:25:45.183Z,89.52
2019-01-24T10:28:13.048Z,91.80
2019-01-24T10:30:43.027Z,94.55
2019-01-24T10:33:10.445Z,89.22
2019-01-24T10:35:38.228Z,96.37
2019-01-24T10:38:06.093Z,93.60
2019-01-24T10:40:34.918Z,100.62
2019-01-24T10:43:02.760Z,86.40
2019-01-24T10:45:30.583Z,87.33
2019-01-24T10:47:59.337Z,89.00
2019-01-24T10:50:27.408Z,95.35
2019-01-24T10:52:55.168Z,87.60
2019-01-24T10:55:25.171Z,88.30
2019-01-24T10:57:54.741Z,89.62
2019-01-24T11:00:26.330Z,82.42
2019-01-24T11:02:54.232Z,88.55
2019-01-24T11:05:22.022Z,89.22
2019-01-24T11:07:49.788Z,88.22
2019-01-24T11:10:18.928Z,81.75
2019-01-24T11:12:47.390Z,98.92
2019-01-24T11:15:18.237Z,93.50
2019-01-24T11:17:46.036Z,93.45
2019-01-24T11:20:16.035Z,92.53
2019-01-24T11:22:43.801Z,94.22
2019-01-24T11:25:14.691Z,92.17
2019-01-24T11:27:42.468Z,91.35
2019-01-24T11:30:14.220Z,90.42
2019-01-24T11:32:42.274Z,91.15
2019-01-24T11:35:12.504Z,85.42
2019-01-24T11:37:40.284Z,86.82
2019-01-24T11:40:11.275Z,88.03
2019-01-24T11:42:38.989Z,92.25
2019-01-24T11:45:09.210Z,89.97
2019-01-24T11:47:36.972Z,93.40
2019-01-24T11:50:08.444Z,89.25
2019-01-24T11:52:36.200Z,86.95
2019-01-24T11:55:04.875Z,89.10
2019-01-24T11:57:32.529Z,92.90
2019-01-24T12:00:00.181Z,90.05
2019-01-24T12:02:27.973Z,97.37
2019-01-24T12:04:55.564Z,88.70
2019-01-24T12:07:23.352Z,89.05
2019-01-24T12:09:51.949Z,79.03
2019-01-24T12:12:20.009Z,88.33
2019-01-24T12:14:47.803Z,82.33
2019-01-24T12:17:15.365Z,85.47
2019-01-24T12:19:43.341Z,94.03
2019-01-24T12:22:11.384Z,87.82
2019-01-24T12:24:39.176Z,93.95
2019-01-24T12:27:07.200Z,99.40
2019-01-24T12:29:34.656Z,97.78
2019-01-24T12:32:02.625Z,98.58
2019-01-24T12:34:30.283Z,99.20
2019-01-24T12:36:58.098Z,89.50
2019-01-24T12:39:26.016Z,93.58
2019-01-24T12:41:54.280Z,88.85
2019-01-24T12:44:22.382Z,95.92
2019-01-24T12:46:52.657Z,89.37
2019-01-24T12:49:21.305Z,91.30
2019-01-24T12:51:50.904Z,102.07
2019-01-24T12:54:18.614Z,91.37
2019-01-24T12:56:46.369Z,93.65
2019-01-24T12:59:14.300Z,93.95
2019-01-24T13:01:42.698Z,85.72
2019-01-24T13:04:10.310Z,88.52
2019-01-24T13:06:38.242Z,79.22
2019-01-24T13:09:07.467Z,81.60
2019-01-24T13:11:35.660Z,88.58
2019-01-24T13:14:03.655Z,92.02
2019-01-24T13:16:31.425Z,85.97
2019-01-24T13:18:59.477Z,87.08
2019-01-24T13:21:27.143Z,101.07
2019-01-24T13:23:54.931Z,154.53
2019-01-24T13:26:22.964Z,131.78
2019-01-24T13:28:50.607Z,90.62
2019-01-24T13:31:18.368Z,90.77
2019-01-24T13:33:46.173Z,82.92
2019-01-24T13:36:14.117Z,81.32
2019-01-24T13:38:41.805Z,89.80
2019-01-24T13:41:09.589Z,98.27
2019-01-24T13:43:37.384Z,94.55
2019-01-24T13:46:05.404Z,88.65
2019-01-24T13:48:33.220Z,82.08
2019-01-24T13:51:00.989Z,81.55
2019-01-24T13:53:28.939Z,84.97
2019-01-24T13:55:56.549Z,98.37
2019-01-24T13:58:24.223Z,98.00
2019-01-24T14:00:52.012Z,94.03
2019-01-24T14:03:57.880Z,79.90
2019-01-24T14:06:25.652Z,84.45
2019-01-24T14:08:53.337Z,104.23
2019-01-24T14:11:21.035Z,91.55
2019-01-24T14:13:49.024Z,87.08
2019-01-24T14:16:16.838Z,85.47
2019-01-24T14:18:44.603Z,87.72
2019-01-24T14:21:12.441Z,98.85
2019-01-24T14:23:40.106Z,85.70
2019-01-24T14:26:07.935Z,100.90
2019-01-24T14:28:35.737Z,80.40
2019-01-24T14:31:03.957Z,83.25
2019-01-24T14:33:31.513Z,101.02
2019-01-24T14:35:59.644Z,82.60
2019-01-24T14:38:27.404Z,77.87
2019-01-24T14:40:55.275Z,72.53
2019-01-24T14:43:22.933Z,77.72
2019-01-24T14:45:50.775Z,81.57
2019-01-24T14:48:18.428Z,75.22
2019-01-24T14:50:46.532Z,77.17
2019-01-24T14:53:14.308Z,80.38
2019-01-24T14:55:42.116Z,73.60
2019-01-24T14:58:09.881Z,74.42
2019-01-24T15:00:45.716Z,75.97
2019-01-24T15:03:13.476Z,79.40
2019-01-24T15:05:41.725Z,75.62
2019-01-24T15:08:09.488Z,77.60
2019-01-24T15:10:37.357Z,73.92
2019-01-24T15:13:05.469Z,73.95
2019-01-24T15:15:33.304Z,90.38
2019-01-24T15:18:01.072Z,81.57
2019-01-24T15:20:28.947Z,78.62
2019-01-24T15:22:57.028Z,75.78
2019-01-24T15:25:25.102Z,80.30
2019-01-24T15:27:52.765Z,81.32
2019-01-24T15:30:22.200Z,73.15
2019-01-24T15:32:50.057Z,81.00
2019-01-24T15:35:17.851Z,81.25
2019-01-24T15:37:46.045Z,80.65
2019-01-24T15:40:28.821Z,88.70
2019-01-24T15:42:56.707Z,85.53
2019-01-24T15:45:24.492Z,84.42
2019-01-24T15:47:52.559Z,82.80
2019-01-24T15:50:20.772Z,91.63
2019-01-24T15:52:48.740Z,79.25
2019-01-24T15:55:16.635Z,92.47
2019-01-24T15:57:44.527Z,85.85
2019-01-24T16:00:17.054Z,78.28
2019-01-24T16:02:44.800Z,79.65
2019-01-24T16:05:12.793Z,83.05
2019-01-24T16:07:40.629Z,79.20
2019-01-24T16:10:11.153Z,80.17
2019-01-24T16:12:39.006Z,80.42
2019-01-24T16:15:11.367Z,85.95
2019-01-24T16:17:39.206Z,83.82
2019-01-24T16:20:11.339Z,90.45
2019-01-24T16:22:39.408Z,89.52
2019-01-24T16:25:08.635Z,82.75
2019-01-24T16:27:36.429Z,82.45
2019-01-24T16:30:07.800Z,104.03
2019-01-24T16:32:35.604Z,102.67
2019-01-24T16:35:04.646Z,83.17
2019-01-24T16:37:32.527Z,118.57
2019-01-24T16:40:00.565Z,90.53
2019-01-24T16:42:28.303Z,98.07
2019-01-24T16:44:56.210Z,94.47
2019-01-24T16:47:24.020Z,86.47
2019-01-24T16:49:52.047Z,84.05
2019-01-24T16:52:19.633Z,88.42
2019-01-24T16:54:47.277Z,85.32
2019-01-24T16:57:15.320Z,83.45
2019-01-24T16:59:43.248Z,82.97
2019-01-24T17:02:11.038Z,86.90
2019-01-24T17:04:38.872Z,84.42
2019-01-24T17:07:06.664Z,87.97
2019-01-24T17:09:34.228Z,92.90
2019-01-24T17:12:02.436Z,87.05
2019-01-24T17:14:30.205Z,82.92
2019-01-24T17:16:58.085Z,80.35
2019-01-24T17:19:26.007Z,79.20
2019-01-24T17:21:53.704Z,81.40
2019-01-24T17:24:21.458Z,80.70
2019-01-24T17:26:49.248Z,79.87
2019-01-24T17:29:16.988Z,80.45
2019-01-24T17:31:44.796Z,80.47
2019-01-24T17:34:12.452Z,86.28
2019-01-24T17:36:40.688Z,81.40
2019-01-24T17:39:10.965Z,86.60
2019-01-24T17:41:38.984Z,77.17
2019-01-24T17:44:06.862Z,88.03
2019-01-24T17:46:34.566Z,87.33
2019-01-24T17:49:02.353Z,84.50
2019-01-24T17:51:30.143Z,78.35
2019-01-24T17:53:57.794Z,86.53
2019-01-24T17:56:25.592Z,84.25
2019-01-24T17:58:53.604Z,85.47
2019-01-24T18:01:21.397Z,80.00
2019-01-24T18:03:49.603Z,88.60
2019-01-24T18:06:17.662Z,81.25
2019-01-24T18:08:45.511Z,91.82
2019-01-24T18:11:13.655Z,86.42
2019-01-24T18:13:41.449Z,77.75
2019-01-24T18:16:09.896Z,80.80
2019-01-24T18:18:38.015Z,86.50
2019-01-24T18:21:05.915Z,86.60
2019-01-24T18:23:33.685Z,82.55
2019-01-24T18:26:01.474Z,82.33
2019-01-24T18:28:30.026Z,106.78
2019-01-24T18:30:57.729Z,104.78
2019-01-24T18:33:25.601Z,92.40
2019-01-24T18:35:53.450Z,87.10
2019-01-24T18:38:21.227Z,136.52
2019-01-24T18:40:49.098Z,90.57
2019-01-24T18:43:21.757Z,87.27
2019-01-24T18:45:51.308Z,81.57
2019-01-24T18:48:19.075Z,90.50
2019-01-24T18:50:47.322Z,84.55
2019-01-24T18:53:16.081Z,87.55
2019-01-24T18:55:44.285Z,88.65
2019-01-24T18:58:12.062Z,78.00
2019-01-24T19:00:45.470Z,83.33
2019-01-24T19:03:13.501Z,84.58
2019-01-24T19:05:42.632Z,80.60
2019-01-24T19:08:10.809Z,77.72
2019-01-24T19:10:39.051Z,83.62
2019-01-24T19:13:08.450Z,80.25
2019-01-24T19:15:38.103Z,85.03
2019-01-24T19:18:09.795Z,86.57
2019-01-24T19:20:38.005Z,80.72
2019-01-24T19:23:05.951Z,86.22
2019-01-24T19:25:34.315Z,75.75
2019-01-24T19:28:02.203Z,83.07
2019-01-24T19:30:30.887Z,82.80
2019-01-24T19:32:58.824Z,88.62
2019-01-24T19:35:26.792Z,82.60
2019-01-24T19:37:55.008Z,87.78
2019-01-24T19:40:23.756Z,81.42
2019-01-24T19:42:51.936Z,83.50
2019-01-24T19:45:21.590Z,81.20
2019-01-24T19:47:49.469Z,78.57
2019-01-24T19:50:20.156Z,83.20
2019-01-24T19:52:48.596Z,76.42
2019-01-24T19:55:16.400Z,82.40
2019-01-24T19:57:44.209Z,79.35
2019-01-24T20:00:18.505Z,83.03
2019-01-24T20:02:46.536Z,90.28
2019-01-24T20:05:15.635Z,81.50
2019-01-24T20:07:43.636Z,79.92
2019-01-24T20:10:15.018Z,84.58
2019-01-24T20:12:42.965Z,79.37
2019-01-24T20:15:14.034Z,84.28
2019-01-24T20:17:42.823Z,86.55
2019-01-24T20:20:11.848Z,82.50
2019-01-24T20:22:39.663Z,84.28
2019-01-24T20:25:10.788Z,82.82
2019-01-24T20:27:38.868Z,84.45
2019-01-24T20:30:12.581Z,105.45
2019-01-24T20:32:40.482Z,86.57
2019-01-24T20:35:13.783Z,93.55
2019-01-24T20:37:41.592Z,80.32
2019-01-24T20:40:11.549Z,86.30
2019-01-24T20:42:40.192Z,82.88
2019-01-24T20:45:08.868Z,84.03
2019-01-24T20:47:36.682Z,78.57
2019-01-24T20:50:05.702Z,85.42
2019-01-24T20:52:33.471Z,81.37
2019-01-24T20:55:01.408Z,83.82
2019-01-24T20:57:29.028Z,85.77
2019-01-24T20:59:57.071Z,78.55
2019-01-24T21:02:25.132Z,80.38
2019-01-24T21:04:54.652Z,82.72
2019-01-24T21:07:22.657Z,83.30
2019-01-24T21:09:50.418Z,78.97
2019-01-24T21:12:18.325Z,84.60
2019-01-24T21:14:46.396Z,81.00
2019-01-24T21:17:15.349Z,73.00
2019-01-24T21:19:43.897Z,81.50
2019-01-24T21:22:11.700Z,87.47
2019-01-24T21:24:39.652Z,72.65
2019-01-24T21:27:07.487Z,81.45
2019-01-24T21:29:35.415Z,86.85
2019-01-24T21:32:03.498Z,80.32
2019-01-24T21:34:31.180Z,76.35
2019-01-24T21:36:59.001Z,79.42
2019-01-24T21:39:27.040Z,81.05
2019-01-24T21:41:54.792Z,80.25
2019-01-24T21:44:22.875Z,79.37
2019-01-24T21:46:50.331Z,79.55
2019-01-24T21:49:18.321Z,76.07
2019-01-24T21:51:46.350Z,73.57
2019-01-24T21:54:14.169Z,85.65
2019-01-24T21:56:42.009Z,74.62
2019-01-24T21:59:09.738Z,76.72
2019-01-24T22:01:37.707Z,79.25
2019-01-24T22:04:05.515Z,77.08
2019-01-24T22:06:33.284Z,74.00
2019-01-24T22:09:01.102Z,74.35
2019-01-24T22:11:28.989Z,69.82
2019-01-24T22:13:56.820Z,75.83
2019-01-24T22:16:24.578Z,75.78
2019-01-24T22:18:52.372Z,73.45
2019-01-24T22:21:20.085Z,70.87
2019-01-24T22:23:48.183Z,73.15
2019-01-24T22:26:15.948Z,76.17
2019-01-24T22:28:44.017Z,73.75
2019-01-24T22:31:11.698Z,82.92
2019-01-24T22:33:39.507Z,99.32
2019-01-24T22:36:07.659Z,80.60
2019-01-24T22:38:35.445Z,71.20
2019-01-24T22:41:03.916Z,70.20
2019-01-24T22:43:31.994Z,82.47
2019-01-24T22:45:59.739Z,83.10
2019-01-24T22:48:27.734Z,80.55
2019-01-24T22:50:55.779Z,74.77
2019-01-24T22:53:23.465Z,70.70
2019-01-24T22:55:51.306Z,65.83
2019-01-24T22:58:19.140Z,66.85
2019-01-24T23:01:45.448Z,71.22
2019-01-24T23:04:22.482Z,71.67
2019-01-24T23:06:50.293Z,67.67
2019-01-24T23:09:20.261Z,62.48
2019-01-24T23:11:48.279Z,63.23
2019-01-24T23:14:16.094Z,66.95
2019-01-24T23:16:43.883Z,65.37
2019-01-24T23:19:11.656Z,59.93
2019-01-24T23:21:39.408Z,60.70
2019-01-24T23:24:07.213Z,66.40
2019-01-24T23:26:34.971Z,66.60
2019-01-24T23:29:03.126Z,67.15
2019-01-24T23:31:30.888Z,58.52
2019-01-24T23:33:58.730Z,70.15
2019-01-24T23:36:26.484Z,63.40
2019-01-24T23:38:54.587Z,63.15
2019-01-24T23:41:22.251Z,61.77
2019-01-24T23:43:50.084Z,61.13
2019-01-24T23:46:17.847Z,63.05
2019-01-24T23:48:45.580Z,63.10
2019-01-24T23:51:13.921Z,62.78
2019-01-24T23:53:41.764Z,63.40
2019-01-24T23:56:09.525Z,61.25
2019-01-24T23:58:37.373Z,68.42
